Terminal Aerodrome Forecast
Issued by NWS

Home | Current Version | Previous Version | Text Only | Print | Product List | Glossary On
Versions: 1 2 3 4 5 6 7 8 9 10 11 12 13 14 15 16 17 18 19 20 21 22 23 24 25 26 27 28 29 30 31 32 33 34 35 36 37 38 39 40 41 42 43 44 45
000
FTUS43 KMKX 182339
TAFUES
TAF
KUES 182339Z 1900/1924 09005KT P6SM BKN015
      TEMPO 1900/1901 SCT015
     FM190400 11003KT 6SM BR SCT013
      TEMPO 1904/1906 3SM BR SCT003
     FM190600 12004KT 2SM BR SCT003
      TEMPO 1906/1908 3/4SM BR BKN003
     FM190800 13004KT 1SM BR BKN003
     FM191300 15007KT 4SM BR SCT005
     FM191400 17010KT P6SM FEW015
     FM191800 18014G22KT P6SM SCT035=

USA.gov is the U.S. government's official web portal to all federal, state and local government web resources and services.